sensor_id;sensor_type;location;lat;lon;timestamp;temperature;humidity
13798;DHT22;6970;51.340;3.240;2023-03-05T00:02:00;7.00;99.90
13798;DHT22;6970;51.340;3.240;2023-03-05T00:04:27;7.00;99.90
13798;DHT22;6970;51.340;3.240;2023-03-05T00:06:57;7.00;99.90
13798;DHT22;6970;51.340;3.240;2023-03-05T00:09:24;7.00;99.90
13798;DHT22;6970;51.340;3.240;2023-03-05T00:11:51;7.00;99.90
13798;DHT22;6970;51.340;3.240;2023-03-05T00:14:19;7.00;99.90
13798;DHT22;6970;51.340;3.240;2023-03-05T00:16:46;7.00;99.90
13798;DHT22;6970;51.340;3.240;2023-03-05T00:19:15;7.00;99.90
13798;DHT22;6970;51.340;3.240;2023-03-05T00:21:43;7.00;99.90
13798;DHT22;6970;51.340;3.240;2023-03-05T00:24:16;7.00;99.90
13798;DHT22;6970;51.340;3.240;2023-03-05T00:26:44;7.00;99.90
13798;DHT22;6970;51.340;3.240;2023-03-05T00:29:18;7.00;99.90
13798;DHT22;6970;51.340;3.240;2023-03-05T00:31:49;7.00;99.90
13798;DHT22;6970;51.340;3.240;2023-03-05T00:34:18;7.00;99.90
13798;DHT22;6970;51.340;3.240;2023-03-05T00:36:50;7.00;99.90
13798;DHT22;6970;51.340;3.240;2023-03-05T00:39:21;7.00;99.90
13798;DHT22;6970;51.340;3.240;2023-03-05T00:41:48;7.00;99.90
13798;DHT22;6970;51.340;3.240;2023-03-05T00:44:16;7.00;99.90
13798;DHT22;6970;51.340;3.240;2023-03-05T00:46:43;7.00;99.90
13798;DHT22;6970;51.340;3.240;2023-03-05T00:49:10;7.00;99.90
13798;DHT22;6970;51.340;3.240;2023-03-05T00:51:39;7.00;99.90
13798;DHT22;6970;51.340;3.240;2023-03-05T00:54:09;7.00;99.90
13798;DHT22;6970;51.340;3.240;2023-03-05T00:56:40;7.00;99.90
13798;DHT22;6970;51.340;3.240;2023-03-05T00:59:10;7.00;99.90
13798;DHT22;6970;51.340;3.240;2023-03-05T01:01:39;7.00;99.90
13798;DHT22;6970;51.340;3.240;2023-03-05T01:04:07;7.00;99.90
13798;DHT22;6970;51.340;3.240;2023-03-05T01:06:34;7.00;99.90
13798;DHT22;6970;51.340;3.240;2023-03-05T01:09:08;7.00;99.90
13798;DHT22;6970;51.340;3.240;2023-03-05T01:11:38;7.00;99.90
13798;DHT22;6970;51.340;3.240;2023-03-05T01:14:09;6.90;99.90
13798;DHT22;6970;51.340;3.240;2023-03-05T01:16:38;6.90;99.90
13798;DHT22;6970;51.340;3.240;2023-03-05T01:19:08;6.90;99.90
13798;DHT22;6970;51.340;3.240;2023-03-05T01:21:39;6.90;99.90
13798;DHT22;6970;51.340;3.240;2023-03-05T01:24:12;6.90;99.90
13798;DHT22;6970;51.340;3.240;2023-03-05T01:26:41;6.90;99.90
13798;DHT22;6970;51.340;3.240;2023-03-05T01:29:11;6.90;99.90
13798;DHT22;6970;51.340;3.240;2023-03-05T01:31:40;7.00;99.90
13798;DHT22;6970;51.340;3.240;2023-03-05T01:34:08;7.00;99.90
13798;DHT22;6970;51.340;3.240;2023-03-05T01:36:35;7.00;99.90
13798;DHT22;6970;51.340;3.240;2023-03-05T01:39:02;7.10;99.90
13798;DHT22;6970;51.340;3.240;2023-03-05T01:41:29;7.10;99.90
13798;DHT22;6970;51.340;3.240;2023-03-05T01:43:57;7.10;99.90
13798;DHT22;6970;51.340;3.240;2023-03-05T01:46:36;7.10;99.90
13798;DHT22;6970;51.340;3.240;2023-03-05T01:54:19;7.10;99.90
13798;DHT22;6970;51.340;3.240;2023-03-05T01:56:49;7.10;99.90
13798;DHT22;6970;51.340;3.240;2023-03-05T01:59:20;7.00;99.90
13798;DHT22;6970;51.340;3.240;2023-03-05T02:01:53;7.00;99.90
13798;DHT22;6970;51.340;3.240;2023-03-05T02:04:25;7.00;99.90
13798;DHT22;6970;51.340;3.240;2023-03-05T02:06:53;6.90;99.90
13798;DHT22;6970;51.340;3.240;2023-03-05T02:09:23;6.80;99.90
13798;DHT22;6970;51.340;3.240;2023-03-05T02:11:54;6.80;99.90
13798;DHT22;6970;51.340;3.240;2023-03-05T02:14:24;6.80;99.90
13798;DHT22;6970;51.340;3.240;2023-03-05T02:16:54;6.70;99.90
13798;DHT22;6970;51.340;3.240;2023-03-05T02:19:25;6.70;99.90
13798;DHT22;6970;51.340;3.240;2023-03-05T02:21:53;6.70;99.90
13798;DHT22;6970;51.340;3.240;2023-03-05T02:24:38;6.70;99.90
13798;DHT22;6970;51.340;3.240;2023-03-05T02:27:08;6.70;99.90
13798;DHT22;6970;51.340;3.240;2023-03-05T02:29:42;6.70;99.90
13798;DHT22;6970;51.340;3.240;2023-03-05T02:32:13;6.60;99.90
13798;DHT22;6970;51.340;3.240;2023-03-05T02:34:42;6.70;99.90
13798;DHT22;6970;51.340;3.240;2023-03-05T02:37:09;6.60;99.90
13798;DHT22;6970;51.340;3.240;2023-03-05T02:39:39;6.60;99.90
13798;DHT22;6970;51.340;3.240;2023-03-05T02:42:08;6.70;99.90
13798;DHT22;6970;51.340;3.240;2023-03-05T02:44:41;6.70;99.90
13798;DHT22;6970;51.340;3.240;2023-03-05T02:47:08;6.70;99.90
13798;DHT22;6970;51.340;3.240;2023-03-05T02:49:35;6.70;99.90
13798;DHT22;6970;51.340;3.240;2023-03-05T02:52:05;6.70;99.90
13798;DHT22;6970;51.340;3.240;2023-03-05T02:54:32;6.70;99.90
13798;DHT22;6970;51.340;3.240;2023-03-05T02:57:01;6.60;99.90
13798;DHT22;6970;51.340;3.240;2023-03-05T02:59:31;6.70;99.90
13798;DHT22;6970;51.340;3.240;2023-03-05T03:02:00;6.70;99.90
13798;DHT22;6970;51.340;3.240;2023-03-05T03:04:30;6.70;99.90
13798;DHT22;6970;51.340;3.240;2023-03-05T03:06:59;6.70;99.90
13798;DHT22;6970;51.340;3.240;2023-03-05T03:09:30;6.70;99.90
13798;DHT22;6970;51.340;3.240;2023-03-05T03:12:02;6.70;99.90
13798;DHT22;6970;51.340;3.240;2023-03-05T03:14:36;6.70;99.90
13798;DHT22;6970;51.340;3.240;2023-03-05T03:17:16;6.70;99.90
13798;DHT22;6970;51.340;3.240;2023-03-05T03:19:45;6.70;99.90
13798;DHT22;6970;51.340;3.240;2023-03-05T03:22:15;6.70;99.90
13798;DHT22;6970;51.340;3.240;2023-03-05T03:24:43;6.70;99.90
13798;DHT22;6970;51.340;3.240;2023-03-05T03:27:13;6.70;99.90
13798;DHT22;6970;51.340;3.240;2023-03-05T03:29:40;6.70;99.90
13798;DHT22;6970;51.340;3.240;2023-03-05T03:32:07;6.70;99.90
13798;DHT22;6970;51.340;3.240;2023-03-05T03:34:34;6.70;99.90
13798;DHT22;6970;51.340;3.240;2023-03-05T03:37:02;6.70;99.90
13798;DHT22;6970;51.340;3.240;2023-03-05T03:39:30;6.70;99.90
13798;DHT22;6970;51.340;3.240;2023-03-05T03:42:00;6.70;99.90
13798;DHT22;6970;51.340;3.240;2023-03-05T03:44:27;6.70;99.90
13798;DHT22;6970;51.340;3.240;2023-03-05T03:46:57;6.70;99.90
13798;DHT22;6970;51.340;3.240;2023-03-05T03:49:27;6.70;99.90
13798;DHT22;6970;51.340;3.240;2023-03-05T03:51:55;6.70;99.90
13798;DHT22;6970;51.340;3.240;2023-03-05T03:54:24;6.70;99.90
13798;DHT22;6970;51.340;3.240;2023-03-05T03:56:54;6.70;99.90
13798;DHT22;6970;51.340;3.240;2023-03-05T03:59:21;6.70;99.90
13798;DHT22;6970;51.340;3.240;2023-03-05T04:01:50;6.70;99.90
13798;DHT22;6970;51.340;3.240;2023-03-05T04:04:17;6.70;99.90
13798;DHT22;6970;51.340;3.240;2023-03-05T04:06:47;6.70;99.90
13798;DHT22;6970;51.340;3.240;2023-03-05T04:09:17;6.70;99.90
13798;DHT22;6970;51.340;3.240;2023-03-05T04:11:45;6.70;99.90
13798;DHT22;6970;51.340;3.240;2023-03-05T04:14:14;6.70;99.90
13798;DHT22;6970;51.340;3.240;2023-03-05T04:16:44;6.70;99.90
13798;DHT22;6970;51.340;3.240;2023-03-05T04:19:14;6.60;99.90
13798;DHT22;6970;51.340;3.240;2023-03-05T04:21:41;6.40;99.90
13798;DHT22;6970;51.340;3.240;2023-03-05T04:24:11;6.40;99.90
13798;DHT22;6970;51.340;3.240;2023-03-05T04:26:39;6.30;99.90
13798;DHT22;6970;51.340;3.240;2023-03-05T04:29:07;6.30;99.90
13798;DHT22;6970;51.340;3.240;2023-03-05T04:31:37;6.20;99.90
13798;DHT22;6970;51.340;3.240;2023-03-05T04:34:05;6.30;99.90
13798;DHT22;6970;51.340;3.240;2023-03-05T04:36:35;6.30;99.90
13798;DHT22;6970;51.340;3.240;2023-03-05T04:39:03;6.30;99.90
13798;DHT22;6970;51.340;3.240;2023-03-05T04:41:31;6.30;99.90
13798;DHT22;6970;51.340;3.240;2023-03-05T04:44:01;6.40;99.90
13798;DHT22;6970;51.340;3.240;2023-03-05T04:46:29;6.40;99.90
13798;DHT22;6970;51.340;3.240;2023-03-05T04:48:59;6.40;99.90
13798;DHT22;6970;51.340;3.240;2023-03-05T04:51:28;6.40;99.90
13798;DHT22;6970;51.340;3.240;2023-03-05T04:53:58;6.40;99.90
13798;DHT22;6970;51.340;3.240;2023-03-05T04:56:29;6.30;99.90
13798;DHT22;6970;51.340;3.240;2023-03-05T04:58:59;6.30;99.90
13798;DHT22;6970;51.340;3.240;2023-03-05T05:01:26;6.30;99.90
13798;DHT22;6970;51.340;3.240;2023-03-05T05:03:56;6.30;99.90
13798;DHT22;6970;51.340;3.240;2023-03-05T05:06:25;6.40;99.90
13798;DHT22;6970;51.340;3.240;2023-03-05T05:08:55;6.30;99.90
13798;DHT22;6970;51.340;3.240;2023-03-05T05:11:22;6.30;99.90
13798;DHT22;6970;51.340;3.240;2023-03-05T05:13:49;6.30;99.90
13798;DHT22;6970;51.340;3.240;2023-03-05T05:16:18;6.20;99.90
13798;DHT22;6970;51.340;3.240;2023-03-05T05:18:46;6.20;99.90
13798;DHT22;6970;51.340;3.240;2023-03-05T05:21:14;6.10;99.90
13798;DHT22;6970;51.340;3.240;2023-03-05T05:23:44;6.00;99.90
13798;DHT22;6970;51.340;3.240;2023-03-05T05:26:13;5.90;99.90
13798;DHT22;6970;51.340;3.240;2023-03-05T05:28:44;5.90;99.90
13798;DHT22;6970;51.340;3.240;2023-03-05T05:31:13;5.90;99.90
13798;DHT22;6970;51.340;3.240;2023-03-05T05:33:42;5.90;99.90
13798;DHT22;6970;51.340;3.240;2023-03-05T05:36:17;5.90;99.90
13798;DHT22;6970;51.340;3.240;2023-03-05T05:38:45;5.90;99.90
13798;DHT22;6970;51.340;3.240;2023-03-05T05:41:16;5.90;99.90
13798;DHT22;6970;51.340;3.240;2023-03-05T05:43:44;5.90;99.90
13798;DHT22;6970;51.340;3.240;2023-03-05T05:46:16;5.90;99.90
13798;DHT22;6970;51.340;3.240;2023-03-05T05:48:49;5.90;99.90
13798;DHT22;6970;51.340;3.240;2023-03-05T05:51:20;5.90;99.90
13798;DHT22;6970;51.340;3.240;2023-03-05T05:53:49;5.90;99.90
13798;DHT22;6970;51.340;3.240;2023-03-05T05:56:17;5.90;99.90
13798;DHT22;6970;51.340;3.240;2023-03-05T05:58:48;5.90;99.90
13798;DHT22;6970;51.340;3.240;2023-03-05T06:01:24;5.90;99.90
13798;DHT22;6970;51.340;3.240;2023-03-05T06:03:52;5.90;99.90
13798;DHT22;6970;51.340;3.240;2023-03-05T06:06:23;5.90;99.90
13798;DHT22;6970;51.340;3.240;2023-03-05T06:08:52;5.90;99.90
13798;DHT22;6970;51.340;3.240;2023-03-05T06:11:19;5.90;99.90
13798;DHT22;6970;51.340;3.240;2023-03-05T06:13:49;5.90;99.90
13798;DHT22;6970;51.340;3.240;2023-03-05T06:16:19;5.90;99.90
13798;DHT22;6970;51.340;3.240;2023-03-05T06:18:50;5.90;99.90
13798;DHT22;6970;51.340;3.240;2023-03-05T06:21:21;6.00;99.90
13798;DHT22;6970;51.340;3.240;2023-03-05T06:23:51;6.00;99.90
13798;DHT22;6970;51.340;3.240;2023-03-05T06:26:20;6.10;99.90
13798;DHT22;6970;51.340;3.240;2023-03-05T06:28:53;6.10;99.90
13798;DHT22;6970;51.340;3.240;2023-03-05T06:31:25;6.10;99.90
13798;DHT22;6970;51.340;3.240;2023-03-05T06:33:58;6.10;99.90
13798;DHT22;6970;51.340;3.240;2023-03-05T06:36:29;6.20;99.90
13798;DHT22;6970;51.340;3.240;2023-03-05T06:38:59;6.20;99.90
13798;DHT22;6970;51.340;3.240;2023-03-05T06:41:28;6.30;99.90
13798;DHT22;6970;51.340;3.240;2023-03-05T06:43:59;6.20;99.90
13798;DHT22;6970;51.340;3.240;2023-03-05T06:46:32;6.20;99.90
13798;DHT22;6970;51.340;3.240;2023-03-05T06:49:03;6.20;99.90
13798;DHT22;6970;51.340;3.240;2023-03-05T06:51:34;6.20;99.90
13798;DHT22;6970;51.340;3.240;2023-03-05T06:54:10;6.20;99.90
13798;DHT22;6970;51.340;3.240;2023-03-05T06:56:43;6.20;99.90
13798;DHT22;6970;51.340;3.240;2023-03-05T06:59:14;6.20;99.90
13798;DHT22;6970;51.340;3.240;2023-03-05T07:01:45;6.30;99.90
13798;DHT22;6970;51.340;3.240;2023-03-05T07:04:15;6.30;99.90
13798;DHT22;6970;51.340;3.240;2023-03-05T07:06:45;6.40;99.90
13798;DHT22;6970;51.340;3.240;2023-03-05T07:09:15;6.40;99.90
13798;DHT22;6970;51.340;3.240;2023-03-05T07:11:43;6.40;99.90
13798;DHT22;6970;51.340;3.240;2023-03-05T07:14:14;6.50;99.90
13798;DHT22;6970;51.340;3.240;2023-03-05T07:16:44;6.50;99.90
13798;DHT22;6970;51.340;3.240;2023-03-05T07:19:14;6.50;99.90
13798;DHT22;6970;51.340;3.240;2023-03-05T07:21:47;6.50;99.90
13798;DHT22;6970;51.340;3.240;2023-03-05T07:24:17;6.60;99.90
13798;DHT22;6970;51.340;3.240;2023-03-05T07:26:46;6.60;99.90
13798;DHT22;6970;51.340;3.240;2023-03-05T07:29:15;6.70;99.90
13798;DHT22;6970;51.340;3.240;2023-03-05T07:31:43;6.70;99.90
13798;DHT22;6970;51.340;3.240;2023-03-05T07:34:10;6.80;99.90
13798;DHT22;6970;51.340;3.240;2023-03-05T07:36:40;6.80;99.90
13798;DHT22;6970;51.340;3.240;2023-03-05T07:39:10;6.70;99.90
13798;DHT22;6970;51.340;3.240;2023-03-05T07:41:39;6.70;99.90
13798;DHT22;6970;51.340;3.240;2023-03-05T07:44:09;6.60;99.90
13798;DHT22;6970;51.340;3.240;2023-03-05T07:46:37;6.50;99.90
13798;DHT22;6970;51.340;3.240;2023-03-05T07:49:04;6.40;99.90
13798;DHT22;6970;51.340;3.240;2023-03-05T07:51:32;6.30;99.90
13798;DHT22;6970;51.340;3.240;2023-03-05T07:54:02;6.20;99.90
13798;DHT22;6970;51.340;3.240;2023-03-05T07:56:33;6.10;99.90
13798;DHT22;6970;51.340;3.240;2023-03-05T07:59:05;6.20;99.90
13798;DHT22;6970;51.340;3.240;2023-03-05T08:01:33;6.20;99.90
13798;DHT22;6970;51.340;3.240;2023-03-05T08:04:04;6.30;99.90
13798;DHT22;6970;51.340;3.240;2023-03-05T08:06:33;6.30;99.90
13798;DHT22;6970;51.340;3.240;2023-03-05T08:09:01;6.40;99.90
13798;DHT22;6970;51.340;3.240;2023-03-05T08:11:28;6.40;99.90
13798;DHT22;6970;51.340;3.240;2023-03-05T08:13:57;6.50;99.90
13798;DHT22;6970;51.340;3.240;2023-03-05T08:16:25;6.60;99.90
13798;DHT22;6970;51.340;3.240;2023-03-05T08:18:56;6.70;99.90
13798;DHT22;6970;51.340;3.240;2023-03-05T08:21:29;6.80;99.90
13798;DHT22;6970;51.340;3.240;2023-03-05T08:24:09;6.90;99.90
13798;DHT22;6970;51.340;3.240;2023-03-05T08:26:37;7.00;99.90
13798;DHT22;6970;51.340;3.240;2023-03-05T08:29:06;7.20;99.90
13798;DHT22;6970;51.340;3.240;2023-03-05T08:31:37;7.20;99.90
13798;DHT22;6970;51.340;3.240;2023-03-05T08:34:06;7.30;99.90
13798;DHT22;6970;51.340;3.240;2023-03-05T08:36:33;7.30;99.90
13798;DHT22;6970;51.340;3.240;2023-03-05T08:39:03;7.40;99.90
13798;DHT22;6970;51.340;3.240;2023-03-05T08:41:32;7.50;99.90
13798;DHT22;6970;51.340;3.240;2023-03-05T08:44:00;7.50;99.90
13798;DHT22;6970;51.340;3.240;2023-03-05T08:46:29;7.60;99.90
13798;DHT22;6970;51.340;3.240;2023-03-05T08:49:01;7.60;99.90
13798;DHT22;6970;51.340;3.240;2023-03-05T08:51:29;7.70;99.90
13798;DHT22;6970;51.340;3.240;2023-03-05T08:53:58;7.70;99.90
13798;DHT22;6970;51.340;3.240;2023-03-05T08:56:29;7.80;99.90
13798;DHT22;6970;51.340;3.240;2023-03-05T08:59:00;7.80;99.90
13798;DHT22;6970;51.340;3.240;2023-03-05T09:01:31;7.90;99.90
13798;DHT22;6970;51.340;3.240;2023-03-05T09:04:00;7.90;99.90
13798;DHT22;6970;51.340;3.240;2023-03-05T09:06:27;7.90;99.90
13798;DHT22;6970;51.340;3.240;2023-03-05T09:08:58;8.00;99.90
13798;DHT22;6970;51.340;3.240;2023-03-05T09:11:29;8.00;99.90
13798;DHT22;6970;51.340;3.240;2023-03-05T09:13:57;8.10;99.90
13798;DHT22;6970;51.340;3.240;2023-03-05T09:16:27;8.20;99.90
13798;DHT22;6970;51.340;3.240;2023-03-05T09:18:55;8.20;99.90
13798;DHT22;6970;51.340;3.240;2023-03-05T09:21:22;8.30;99.90
13798;DHT22;6970;51.340;3.240;2023-03-05T09:23:50;8.40;99.90
13798;DHT22;6970;51.340;3.240;2023-03-05T09:26:18;8.40;99.90
13798;DHT22;6970;51.340;3.240;2023-03-05T09:28:48;8.50;99.90
13798;DHT22;6970;51.340;3.240;2023-03-05T09:31:16;8.50;99.90
13798;DHT22;6970;51.340;3.240;2023-03-05T09:33:43;8.50;99.90
13798;DHT22;6970;51.340;3.240;2023-03-05T09:36:20;8.60;99.90
13798;DHT22;6970;51.340;3.240;2023-03-05T09:38:49;8.60;99.90
13798;DHT22;6970;51.340;3.240;2023-03-05T09:50:03;8.60;99.90
13798;DHT22;6970;51.340;3.240;2023-03-05T09:53:14;8.70;99.90
13798;DHT22;6970;51.340;3.240;2023-03-05T09:55:38;8.80;99.90
13798;DHT22;6970;51.340;3.240;2023-03-05T10:01:00;9.00;99.90
13798;DHT22;6970;51.340;3.240;2023-03-05T10:06:36;9.20;99.90
13798;DHT22;6970;51.340;3.240;2023-03-05T10:14:33;8.70;99.90
13798;DHT22;6970;51.340;3.240;2023-03-05T10:31:36;8.30;99.90
13798;DHT22;6970;51.340;3.240;2023-03-05T10:36:53;8.60;99.90
13798;DHT22;6970;51.340;3.240;2023-03-05T10:45:49;9.20;99.90
13798;DHT22;6970;51.340;3.240;2023-03-05T10:48:38;9.20;99.90
13798;DHT22;6970;51.340;3.240;2023-03-05T10:54:01;9.40;99.90
13798;DHT22;6970;51.340;3.240;2023-03-05T10:56:33;9.50;99.90
13798;DHT22;6970;51.340;3.240;2023-03-05T10:59:01;9.50;99.90
13798;DHT22;6970;51.340;3.240;2023-03-05T11:01:28;9.60;99.90
13798;DHT22;6970;51.340;3.240;2023-03-05T11:06:41;10.00;99.90
13798;DHT22;6970;51.340;3.240;2023-03-05T11:09:29;10.30;99.90
13798;DHT22;6970;51.340;3.240;2023-03-05T11:15:02;11.60;99.90
13798;DHT22;6970;51.340;3.240;2023-03-05T11:17:31;12.00;99.90
13798;DHT22;6970;51.340;3.240;2023-03-05T11:23:20;12.50;99.90
13798;DHT22;6970;51.340;3.240;2023-03-05T11:25:54;12.50;99.90
13798;DHT22;6970;51.340;3.240;2023-03-05T11:28:26;12.30;99.90
13798;DHT22;6970;51.340;3.240;2023-03-05T11:34:06;11.80;99.90
13798;DHT22;6970;51.340;3.240;2023-03-05T11:36:41;12.00;99.90
13798;DHT22;6970;51.340;3.240;2023-03-05T11:39:16;12.00;99.90
13798;DHT22;6970;51.340;3.240;2023-03-05T11:41:50;12.00;99.90
13798;DHT22;6970;51.340;3.240;2023-03-05T11:44:24;12.00;99.80
13798;DHT22;6970;51.340;3.240;2023-03-05T11:47:03;11.80;99.80
13798;DHT22;6970;51.340;3.240;2023-03-05T11:49:39;11.60;99.90
13798;DHT22;6970;51.340;3.240;2023-03-05T11:52:21;11.40;99.90
13798;DHT22;6970;51.340;3.240;2023-03-05T12:00:27;11.10;99.90
13798;DHT22;6970;51.340;3.240;2023-03-05T12:02:58;11.00;99.90
13798;DHT22;6970;51.340;3.240;2023-03-05T12:05:28;10.90;99.90
13798;DHT22;6970;51.340;3.240;2023-03-05T12:07:59;10.90;99.90
13798;DHT22;6970;51.340;3.240;2023-03-05T12:10:30;10.80;99.90
13798;DHT22;6970;51.340;3.240;2023-03-05T12:13:19;10.70;99.90
13798;DHT22;6970;51.340;3.240;2023-03-05T12:16:17;10.50;99.90
13798;DHT22;6970;51.340;3.240;2023-03-05T12:21:29;10.00;99.90
13798;DHT22;6970;51.340;3.240;2023-03-05T12:24:00;9.70;99.90
13798;DHT22;6970;51.340;3.240;2023-03-05T12:29:49;9.30;99.90
13798;DHT22;6970;51.340;3.240;2023-03-05T12:35:29;9.00;99.90
13798;DHT22;6970;51.340;3.240;2023-03-05T12:37:59;9.00;99.90
13798;DHT22;6970;51.340;3.240;2023-03-05T12:40:34;8.90;99.90
13798;DHT22;6970;51.340;3.240;2023-03-05T12:43:26;8.90;99.90
13798;DHT22;6970;51.340;3.240;2023-03-05T12:46:26;8.90;99.90
13798;DHT22;6970;51.340;3.240;2023-03-05T12:48:56;8.80;99.90
13798;DHT22;6970;51.340;3.240;2023-03-05T12:51:36;8.80;99.90
13798;DHT22;6970;51.340;3.240;2023-03-05T12:56:49;8.70;99.90
13798;DHT22;6970;51.340;3.240;2023-03-05T12:59:20;8.70;99.90
13798;DHT22;6970;51.340;3.240;2023-03-05T13:02:03;8.70;99.90
13798;DHT22;6970;51.340;3.240;2023-03-05T13:04:39;8.80;99.90
13798;DHT22;6970;51.340;3.240;2023-03-05T13:07:16;8.80;99.90
13798;DHT22;6970;51.340;3.240;2023-03-05T13:09:56;8.70;99.90
13798;DHT22;6970;51.340;3.240;2023-03-05T13:12:28;8.60;99.90
13798;DHT22;6970;51.340;3.240;2023-03-05T13:15:05;8.60;99.90
13798;DHT22;6970;51.340;3.240;2023-03-05T13:18:03;8.60;99.90
13798;DHT22;6970;51.340;3.240;2023-03-05T13:20:39;8.60;99.90
13798;DHT22;6970;51.340;3.240;2023-03-05T13:23:21;8.60;99.90
13798;DHT22;6970;51.340;3.240;2023-03-05T13:26:02;8.60;99.90
13798;DHT22;6970;51.340;3.240;2023-03-05T13:28:31;8.60;99.90
13798;DHT22;6970;51.340;3.240;2023-03-05T13:31:14;8.70;99.90
13798;DHT22;6970;51.340;3.240;2023-03-05T13:33:58;8.70;99.90
13798;DHT22;6970;51.340;3.240;2023-03-05T13:36:32;8.60;99.90
13798;DHT22;6970;51.340;3.240;2023-03-05T13:38:59;8.60;99.90
13798;DHT22;6970;51.340;3.240;2023-03-05T13:41:31;8.60;99.90
13798;DHT22;6970;51.340;3.240;2023-03-05T13:44:01;8.60;99.90
13798;DHT22;6970;51.340;3.240;2023-03-05T13:46:38;8.60;99.90
13798;DHT22;6970;51.340;3.240;2023-03-05T13:49:23;8.50;99.90
13798;DHT22;6970;51.340;3.240;2023-03-05T13:51:57;8.50;99.90
13798;DHT22;6970;51.340;3.240;2023-03-05T13:54:28;8.50;99.90
13798;DHT22;6970;51.340;3.240;2023-03-05T13:57:04;8.50;99.90
13798;DHT22;6970;51.340;3.240;2023-03-05T13:59:37;8.50;99.90
13798;DHT22;6970;51.340;3.240;2023-03-05T14:02:16;8.40;99.90
13798;DHT22;6970;51.340;3.240;2023-03-05T14:04:48;8.40;99.90
13798;DHT22;6970;51.340;3.240;2023-03-05T14:07:36;8.30;99.90
13798;DHT22;6970;51.340;3.240;2023-03-05T14:12:54;8.40;99.90
13798;DHT22;6970;51.340;3.240;2023-03-05T14:15:29;8.40;99.90
13798;DHT22;6970;51.340;3.240;2023-03-05T14:23:46;8.30;99.90
13798;DHT22;6970;51.340;3.240;2023-03-05T14:28:57;8.30;99.90
13798;DHT22;6970;51.340;3.240;2023-03-05T14:31:25;8.30;99.90
13798;DHT22;6970;51.340;3.240;2023-03-05T14:33:53;8.20;99.90
13798;DHT22;6970;51.340;3.240;2023-03-05T14:36:27;8.20;99.90
13798;DHT22;6970;51.340;3.240;2023-03-05T14:38:55;8.10;99.90
13798;DHT22;6970;51.340;3.240;2023-03-05T14:41:34;8.10;99.90
13798;DHT22;6970;51.340;3.240;2023-03-05T14:44:10;8.10;99.90
13798;DHT22;6970;51.340;3.240;2023-03-05T14:46:40;8.10;99.90
13798;DHT22;6970;51.340;3.240;2023-03-05T14:49:09;8.10;99.90
13798;DHT22;6970;51.340;3.240;2023-03-05T14:51:39;8.00;99.90
13798;DHT22;6970;51.340;3.240;2023-03-05T14:54:20;7.90;99.90
13798;DHT22;6970;51.340;3.240;2023-03-05T14:56:48;7.90;99.90
13798;DHT22;6970;51.340;3.240;2023-03-05T14:59:19;7.80;99.90
13798;DHT22;6970;51.340;3.240;2023-03-05T15:01:48;7.80;99.90
13798;DHT22;6970;51.340;3.240;2023-03-05T15:04:17;7.70;99.90
13798;DHT22;6970;51.340;3.240;2023-03-05T15:06:46;7.70;99.90
13798;DHT22;6970;51.340;3.240;2023-03-05T15:09:18;7.70;99.90
13798;DHT22;6970;51.340;3.240;2023-03-05T15:11:46;7.70;99.90
13798;DHT22;6970;51.340;3.240;2023-03-05T15:14:13;7.70;99.90
13798;DHT22;6970;51.340;3.240;2023-03-05T15:16:42;7.70;99.90
13798;DHT22;6970;51.340;3.240;2023-03-05T15:19:16;7.70;99.90
13798;DHT22;6970;51.340;3.240;2023-03-05T15:21:43;7.70;99.90
13798;DHT22;6970;51.340;3.240;2023-03-05T15:24:10;7.70;99.90
13798;DHT22;6970;51.340;3.240;2023-03-05T15:26:42;7.70;99.90
13798;DHT22;6970;51.340;3.240;2023-03-05T15:29:12;7.60;99.90
13798;DHT22;6970;51.340;3.240;2023-03-05T15:31:39;7.60;99.90
13798;DHT22;6970;51.340;3.240;2023-03-05T15:34:09;7.60;99.90
13798;DHT22;6970;51.340;3.240;2023-03-05T15:36:39;7.60;99.90
13798;DHT22;6970;51.340;3.240;2023-03-05T15:39:09;7.50;99.90
13798;DHT22;6970;51.340;3.240;2023-03-05T15:41:38;7.60;99.90
13798;DHT22;6970;51.340;3.240;2023-03-05T15:44:07;7.60;99.90
13798;DHT22;6970;51.340;3.240;2023-03-05T15:46:36;7.50;99.90
13798;DHT22;6970;51.340;3.240;2023-03-05T15:49:06;7.50;99.90
13798;DHT22;6970;51.340;3.240;2023-03-05T15:51:36;7.40;99.90
13798;DHT22;6970;51.340;3.240;2023-03-05T15:54:04;7.50;99.90
13798;DHT22;6970;51.340;3.240;2023-03-05T15:56:32;7.50;99.90
13798;DHT22;6970;51.340;3.240;2023-03-05T15:59:02;7.50;99.90
13798;DHT22;6970;51.340;3.240;2023-03-05T16:01:30;7.50;99.90
13798;DHT22;6970;51.340;3.240;2023-03-05T16:04:01;7.40;99.90
13798;DHT22;6970;51.340;3.240;2023-03-05T16:06:29;7.40;99.90
13798;DHT22;6970;51.340;3.240;2023-03-05T16:09:01;7.40;99.90
13798;DHT22;6970;51.340;3.240;2023-03-05T16:11:37;7.40;99.90
13798;DHT22;6970;51.340;3.240;2023-03-05T16:14:08;7.40;99.90
13798;DHT22;6970;51.340;3.240;2023-03-05T16:16:37;7.40;99.90
13798;DHT22;6970;51.340;3.240;2023-03-05T16:19:10;7.30;99.90
13798;DHT22;6970;51.340;3.240;2023-03-05T16:21:41;7.30;99.90
13798;DHT22;6970;51.340;3.240;2023-03-05T16:24:09;7.20;99.90
13798;DHT22;6970;51.340;3.240;2023-03-05T16:26:37;7.30;99.90
13798;DHT22;6970;51.340;3.240;2023-03-05T16:29:12;7.20;99.90
13798;DHT22;6970;51.340;3.240;2023-03-05T16:31:41;7.20;99.90
13798;DHT22;6970;51.340;3.240;2023-03-05T16:34:13;7.20;99.90
13798;DHT22;6970;51.340;3.240;2023-03-05T16:36:51;7.20;99.90
13798;DHT22;6970;51.340;3.240;2023-03-05T16:39:21;7.20;99.90
13798;DHT22;6970;51.340;3.240;2023-03-05T16:41:52;7.20;99.90
13798;DHT22;6970;51.340;3.240;2023-03-05T16:44:19;7.20;99.90
13798;DHT22;6970;51.340;3.240;2023-03-05T16:46:46;7.20;99.90
13798;DHT22;6970;51.340;3.240;2023-03-05T16:49:20;7.10;99.90
13798;DHT22;6970;51.340;3.240;2023-03-05T16:51:47;7.10;99.90
13798;DHT22;6970;51.340;3.240;2023-03-05T16:54:14;7.10;99.90
13798;DHT22;6970;51.340;3.240;2023-03-05T16:56:43;7.10;99.90
13798;DHT22;6970;51.340;3.240;2023-03-05T16:59:13;7.10;99.90
13798;DHT22;6970;51.340;3.240;2023-03-05T17:01:40;7.10;99.90
13798;DHT22;6970;51.340;3.240;2023-03-05T17:04:11;7.10;99.90
13798;DHT22;6970;51.340;3.240;2023-03-05T17:06:39;7.00;99.90
13798;DHT22;6970;51.340;3.240;2023-03-05T17:09:06;6.90;99.90
13798;DHT22;6970;51.340;3.240;2023-03-05T17:11:36;6.90;99.90
13798;DHT22;6970;51.340;3.240;2023-03-05T17:14:06;6.90;99.90
13798;DHT22;6970;51.340;3.240;2023-03-05T17:16:35;6.90;99.90
13798;DHT22;6970;51.340;3.240;2023-03-05T17:19:04;6.90;99.90
13798;DHT22;6970;51.340;3.240;2023-03-05T17:21:34;6.90;99.90
13798;DHT22;6970;51.340;3.240;2023-03-05T17:24:05;6.90;99.90
13798;DHT22;6970;51.340;3.240;2023-03-05T17:26:34;6.80;99.90
13798;DHT22;6970;51.340;3.240;2023-03-05T17:29:07;6.80;99.90
13798;DHT22;6970;51.340;3.240;2023-03-05T17:31:37;6.80;99.90
13798;DHT22;6970;51.340;3.240;2023-03-05T17:34:05;6.80;99.90
13798;DHT22;6970;51.340;3.240;2023-03-05T17:36:35;6.80;99.90
13798;DHT22;6970;51.340;3.240;2023-03-05T17:39:08;6.80;99.90
13798;DHT22;6970;51.340;3.240;2023-03-05T17:41:38;6.80;99.90
13798;DHT22;6970;51.340;3.240;2023-03-05T17:44:05;6.80;99.90
13798;DHT22;6970;51.340;3.240;2023-03-05T17:46:33;6.80;99.90
13798;DHT22;6970;51.340;3.240;2023-03-05T17:49:00;6.80;99.90
13798;DHT22;6970;51.340;3.240;2023-03-05T17:51:27;6.80;99.90
13798;DHT22;6970;51.340;3.240;2023-03-05T17:53:56;6.80;99.90
13798;DHT22;6970;51.340;3.240;2023-03-05T17:56:24;6.80;99.90